sensor_id;sensor_type;location;lat;lon;timestamp;temperature;humidity
4749;DHT22;2388;53.582;9.962;2023-07-31T00:00:11;16.30;99.90
4749;DHT22;2388;53.582;9.962;2023-07-31T00:02:37;16.20;99.90
4749;DHT22;2388;53.582;9.962;2023-07-31T00:05:03;16.20;99.90
4749;DHT22;2388;53.582;9.962;2023-07-31T00:07:29;16.30;99.90
4749;DHT22;2388;53.582;9.962;2023-07-31T00:09:54;16.30;99.90
4749;DHT22;2388;53.582;9.962;2023-07-31T00:12:22;16.30;99.90
4749;DHT22;2388;53.582;9.962;2023-07-31T00:14:47;16.30;99.90
4749;DHT22;2388;53.582;9.962;2023-07-31T00:17:13;16.30;99.90
4749;DHT22;2388;53.582;9.962;2023-07-31T00:19:38;16.30;99.90
4749;DHT22;2388;53.582;9.962;2023-07-31T00:22:04;16.30;99.90
4749;DHT22;2388;53.582;9.962;2023-07-31T00:24:30;16.30;99.90
4749;DHT22;2388;53.582;9.962;2023-07-31T00:26:55;16.30;99.90
4749;DHT22;2388;53.582;9.962;2023-07-31T00:29:21;16.30;99.90
4749;DHT22;2388;53.582;9.962;2023-07-31T00:31:46;16.30;99.90
4749;DHT22;2388;53.582;9.962;2023-07-31T00:34:12;16.30;99.90
4749;DHT22;2388;53.582;9.962;2023-07-31T00:36:37;16.30;99.90
4749;DHT22;2388;53.582;9.962;2023-07-31T00:39:03;16.30;99.90
4749;DHT22;2388;53.582;9.962;2023-07-31T00:41:29;16.30;99.90
4749;DHT22;2388;53.582;9.962;2023-07-31T00:43:55;16.30;99.90
4749;DHT22;2388;53.582;9.962;2023-07-31T00:46:21;16.30;99.90
4749;DHT22;2388;53.582;9.962;2023-07-31T00:48:46;16.30;99.90
4749;DHT22;2388;53.582;9.962;2023-07-31T00:51:12;16.30;99.90
4749;DHT22;2388;53.582;9.962;2023-07-31T00:53:38;16.30;99.90
4749;DHT22;2388;53.582;9.962;2023-07-31T00:56:05;16.30;99.90
4749;DHT22;2388;53.582;9.962;2023-07-31T00:58:31;16.30;99.90
4749;DHT22;2388;53.582;9.962;2023-07-31T01:00:57;16.30;99.90
4749;DHT22;2388;53.582;9.962;2023-07-31T01:03:22;16.20;99.90
4749;DHT22;2388;53.582;9.962;2023-07-31T01:05:57;16.20;99.90
4749;DHT22;2388;53.582;9.962;2023-07-31T01:08:43;16.20;99.90
4749;DHT22;2388;53.582;9.962;2023-07-31T01:11:19;16.20;99.90
4749;DHT22;2388;53.582;9.962;2023-07-31T01:13:47;16.20;99.90
4749;DHT22;2388;53.582;9.962;2023-07-31T01:16:12;16.10;99.90
4749;DHT22;2388;53.582;9.962;2023-07-31T01:18:38;16.20;99.90
4749;DHT22;2388;53.582;9.962;2023-07-31T01:21:18;16.20;99.90
4749;DHT22;2388;53.582;9.962;2023-07-31T01:24:10;16.20;99.90
4749;DHT22;2388;53.582;9.962;2023-07-31T01:26:39;16.20;99.90
4749;DHT22;2388;53.582;9.962;2023-07-31T01:29:40;16.20;99.90
4749;DHT22;2388;53.582;9.962;2023-07-31T01:31:59;16.20;99.90
4749;DHT22;2388;53.582;9.962;2023-07-31T01:34:26;16.20;99.90
4749;DHT22;2388;53.582;9.962;2023-07-31T01:36:52;16.10;99.90
4749;DHT22;2388;53.582;9.962;2023-07-31T01:39:20;16.10;99.90
4749;DHT22;2388;53.582;9.962;2023-07-31T01:41:45;16.10;99.90
4749;DHT22;2388;53.582;9.962;2023-07-31T01:44:11;16.10;99.90
4749;DHT22;2388;53.582;9.962;2023-07-31T01:46:36;16.10;99.90
4749;DHT22;2388;53.582;9.962;2023-07-31T01:49:02;16.10;99.90
4749;DHT22;2388;53.582;9.962;2023-07-31T01:51:28;16.10;99.90
4749;DHT22;2388;53.582;9.962;2023-07-31T01:53:53;16.10;99.90
4749;DHT22;2388;53.582;9.962;2023-07-31T01:56:19;16.10;99.90
4749;DHT22;2388;53.582;9.962;2023-07-31T01:58:44;16.10;99.90
4749;DHT22;2388;53.582;9.962;2023-07-31T02:01:10;16.10;99.90
4749;DHT22;2388;53.582;9.962;2023-07-31T02:03:35;16.10;99.90
4749;DHT22;2388;53.582;9.962;2023-07-31T02:06:01;16.10;99.90
4749;DHT22;2388;53.582;9.962;2023-07-31T02:08:26;16.10;99.90
4749;DHT22;2388;53.582;9.962;2023-07-31T02:10:52;16.10;99.90
4749;DHT22;2388;53.582;9.962;2023-07-31T02:13:17;16.10;99.90
4749;DHT22;2388;53.582;9.962;2023-07-31T02:15:43;16.10;99.90
4749;DHT22;2388;53.582;9.962;2023-07-31T02:18:08;16.10;99.90
4749;DHT22;2388;53.582;9.962;2023-07-31T02:20:34;16.10;99.90
4749;DHT22;2388;53.582;9.962;2023-07-31T02:23:00;16.10;99.90
4749;DHT22;2388;53.582;9.962;2023-07-31T02:25:26;16.10;99.90
4749;DHT22;2388;53.582;9.962;2023-07-31T02:27:52;16.10;99.90
4749;DHT22;2388;53.582;9.962;2023-07-31T02:30:17;16.10;99.90
4749;DHT22;2388;53.582;9.962;2023-07-31T02:32:43;16.20;99.90
4749;DHT22;2388;53.582;9.962;2023-07-31T02:35:08;16.20;99.90
4749;DHT22;2388;53.582;9.962;2023-07-31T02:37:34;16.10;99.90
4749;DHT22;2388;53.582;9.962;2023-07-31T02:39:59;16.10;99.90
4749;DHT22;2388;53.582;9.962;2023-07-31T02:42:25;16.10;99.90
4749;DHT22;2388;53.582;9.962;2023-07-31T02:44:50;16.10;99.90
4749;DHT22;2388;53.582;9.962;2023-07-31T02:47:21;16.10;99.90
4749;DHT22;2388;53.582;9.962;2023-07-31T02:49:47;16.10;99.90
4749;DHT22;2388;53.582;9.962;2023-07-31T02:55:53;16.10;99.90
4749;DHT22;2388;53.582;9.962;2023-07-31T02:58:18;16.10;99.90
4749;DHT22;2388;53.582;9.962;2023-07-31T03:00:44;16.10;99.90
4749;DHT22;2388;53.582;9.962;2023-07-31T03:03:10;16.10;99.90
4749;DHT22;2388;53.582;9.962;2023-07-31T03:05:36;16.10;99.90
4749;DHT22;2388;53.582;9.962;2023-07-31T03:08:02;16.10;99.90
4749;DHT22;2388;53.582;9.962;2023-07-31T03:10:27;16.10;99.90
4749;DHT22;2388;53.582;9.962;2023-07-31T03:12:53;16.00;99.90
4749;DHT22;2388;53.582;9.962;2023-07-31T03:15:18;16.00;99.90
4749;DHT22;2388;53.582;9.962;2023-07-31T03:17:44;16.10;99.90
4749;DHT22;2388;53.582;9.962;2023-07-31T03:20:10;16.00;99.90
4749;DHT22;2388;53.582;9.962;2023-07-31T03:22:35;16.00;99.90
4749;DHT22;2388;53.582;9.962;2023-07-31T03:25:04;16.00;99.90
4749;DHT22;2388;53.582;9.962;2023-07-31T03:27:30;16.00;99.90
4749;DHT22;2388;53.582;9.962;2023-07-31T03:29:56;16.00;99.90
4749;DHT22;2388;53.582;9.962;2023-07-31T03:32:21;16.00;99.90
4749;DHT22;2388;53.582;9.962;2023-07-31T03:34:47;16.00;99.90
4749;DHT22;2388;53.582;9.962;2023-07-31T03:37:12;16.00;99.90
4749;DHT22;2388;53.582;9.962;2023-07-31T03:39:38;16.10;99.90
4749;DHT22;2388;53.582;9.962;2023-07-31T03:42:03;16.10;99.90
4749;DHT22;2388;53.582;9.962;2023-07-31T03:44:29;16.10;99.90
4749;DHT22;2388;53.582;9.962;2023-07-31T03:46:54;16.10;99.90
4749;DHT22;2388;53.582;9.962;2023-07-31T03:49:20;16.10;99.90
4749;DHT22;2388;53.582;9.962;2023-07-31T03:51:46;16.10;99.90
4749;DHT22;2388;53.582;9.962;2023-07-31T03:54:11;16.10;99.90
4749;DHT22;2388;53.582;9.962;2023-07-31T03:56:38;16.10;99.90
4749;DHT22;2388;53.582;9.962;2023-07-31T03:59:04;16.10;99.90
4749;DHT22;2388;53.582;9.962;2023-07-31T04:01:29;16.10;99.90
4749;DHT22;2388;53.582;9.962;2023-07-31T04:03:55;16.10;99.90
4749;DHT22;2388;53.582;9.962;2023-07-31T04:06:20;16.10;99.90
4749;DHT22;2388;53.582;9.962;2023-07-31T04:08:46;16.10;99.90
4749;DHT22;2388;53.582;9.962;2023-07-31T04:11:11;16.20;99.90
4749;DHT22;2388;53.582;9.962;2023-07-31T04:13:38;16.20;99.90
4749;DHT22;2388;53.582;9.962;2023-07-31T04:16:03;16.10;99.90
4749;DHT22;2388;53.582;9.962;2023-07-31T04:18:29;16.10;99.90
4749;DHT22;2388;53.582;9.962;2023-07-31T04:20:56;16.10;99.90
4749;DHT22;2388;53.582;9.962;2023-07-31T04:23:23;16.10;99.90
4749;DHT22;2388;53.582;9.962;2023-07-31T04:25:49;16.10;99.90
4749;DHT22;2388;53.582;9.962;2023-07-31T04:28:14;16.10;99.90
4749;DHT22;2388;53.582;9.962;2023-07-31T04:30:40;16.00;99.90
4749;DHT22;2388;53.582;9.962;2023-07-31T04:33:06;16.00;99.90
4749;DHT22;2388;53.582;9.962;2023-07-31T04:35:31;16.00;99.90
4749;DHT22;2388;53.582;9.962;2023-07-31T04:37:57;16.00;99.90
4749;DHT22;2388;53.582;9.962;2023-07-31T04:40:22;16.00;99.90
4749;DHT22;2388;53.582;9.962;2023-07-31T04:42:48;16.00;99.90
4749;DHT22;2388;53.582;9.962;2023-07-31T04:45:14;16.00;99.90
4749;DHT22;2388;53.582;9.962;2023-07-31T04:47:39;16.00;99.90
4749;DHT22;2388;53.582;9.962;2023-07-31T04:50:05;16.00;99.90
4749;DHT22;2388;53.582;9.962;2023-07-31T04:52:31;16.00;99.90
4749;DHT22;2388;53.582;9.962;2023-07-31T04:54:56;16.00;99.90
4749;DHT22;2388;53.582;9.962;2023-07-31T04:57:22;16.00;99.90
4749;DHT22;2388;53.582;9.962;2023-07-31T04:59:47;16.00;99.90
4749;DHT22;2388;53.582;9.962;2023-07-31T05:02:13;16.00;99.90
4749;DHT22;2388;53.582;9.962;2023-07-31T05:04:39;16.00;99.90
4749;DHT22;2388;53.582;9.962;2023-07-31T05:07:04;16.00;99.90
4749;DHT22;2388;53.582;9.962;2023-07-31T05:09:30;16.00;99.90
4749;DHT22;2388;53.582;9.962;2023-07-31T05:11:56;16.00;99.90
4749;DHT22;2388;53.582;9.962;2023-07-31T05:14:21;16.00;99.90
4749;DHT22;2388;53.582;9.962;2023-07-31T05:16:46;15.90;99.90
4749;DHT22;2388;53.582;9.962;2023-07-31T05:19:12;15.90;99.90
4749;DHT22;2388;53.582;9.962;2023-07-31T05:21:38;15.90;99.90
4749;DHT22;2388;53.582;9.962;2023-07-31T05:24:04;15.90;99.90
4749;DHT22;2388;53.582;9.962;2023-07-31T05:26:29;15.90;99.90
4749;DHT22;2388;53.582;9.962;2023-07-31T05:28:55;15.90;99.90
4749;DHT22;2388;53.582;9.962;2023-07-31T05:31:20;15.90;99.90
4749;DHT22;2388;53.582;9.962;2023-07-31T05:33:47;15.90;99.90
4749;DHT22;2388;53.582;9.962;2023-07-31T05:36:15;15.90;99.90
4749;DHT22;2388;53.582;9.962;2023-07-31T05:38:40;15.90;99.90
4749;DHT22;2388;53.582;9.962;2023-07-31T05:41:06;15.90;99.90
4749;DHT22;2388;53.582;9.962;2023-07-31T05:43:31;15.90;99.90
4749;DHT22;2388;53.582;9.962;2023-07-31T05:45:57;15.90;99.90
4749;DHT22;2388;53.582;9.962;2023-07-31T05:48:22;15.90;99.90
4749;DHT22;2388;53.582;9.962;2023-07-31T05:50:48;15.90;99.90
4749;DHT22;2388;53.582;9.962;2023-07-31T05:53:13;15.90;99.90
4749;DHT22;2388;53.582;9.962;2023-07-31T05:55:39;15.90;99.90
4749;DHT22;2388;53.582;9.962;2023-07-31T05:58:04;15.90;99.90
4749;DHT22;2388;53.582;9.962;2023-07-31T06:00:30;15.90;99.90
4749;DHT22;2388;53.582;9.962;2023-07-31T06:02:56;15.90;99.90
4749;DHT22;2388;53.582;9.962;2023-07-31T06:05:21;15.90;99.90
4749;DHT22;2388;53.582;9.962;2023-07-31T06:07:47;15.90;99.90
4749;DHT22;2388;53.582;9.962;2023-07-31T06:10:12;15.90;99.90
4749;DHT22;2388;53.582;9.962;2023-07-31T06:12:38;15.90;99.90
4749;DHT22;2388;53.582;9.962;2023-07-31T06:15:04;16.00;99.90
4749;DHT22;2388;53.582;9.962;2023-07-31T06:17:31;16.00;99.90
4749;DHT22;2388;53.582;9.962;2023-07-31T06:19:56;16.00;99.90
4749;DHT22;2388;53.582;9.962;2023-07-31T06:22:22;16.00;99.90
4749;DHT22;2388;53.582;9.962;2023-07-31T06:24:48;16.00;99.90
4749;DHT22;2388;53.582;9.962;2023-07-31T06:27:13;16.00;99.90
4749;DHT22;2388;53.582;9.962;2023-07-31T06:29:39;16.00;99.90
4749;DHT22;2388;53.582;9.962;2023-07-31T06:32:04;16.10;99.90
4749;DHT22;2388;53.582;9.962;2023-07-31T06:34:30;16.20;99.90
4749;DHT22;2388;53.582;9.962;2023-07-31T06:36:56;16.20;99.90
4749;DHT22;2388;53.582;9.962;2023-07-31T06:39:21;16.20;99.90
4749;DHT22;2388;53.582;9.962;2023-07-31T06:41:47;16.10;99.90
4749;DHT22;2388;53.582;9.962;2023-07-31T06:44:13;16.10;99.90
4749;DHT22;2388;53.582;9.962;2023-07-31T06:46:38;16.10;99.90
4749;DHT22;2388;53.582;9.962;2023-07-31T06:49:04;16.10;99.90
4749;DHT22;2388;53.582;9.962;2023-07-31T06:51:29;16.10;99.90
4749;DHT22;2388;53.582;9.962;2023-07-31T06:53:57;16.10;99.90
4749;DHT22;2388;53.582;9.962;2023-07-31T06:56:22;16.10;99.90
4749;DHT22;2388;53.582;9.962;2023-07-31T06:58:48;16.00;99.90
4749;DHT22;2388;53.582;9.962;2023-07-31T07:01:13;16.10;99.90
4749;DHT22;2388;53.582;9.962;2023-07-31T07:03:39;16.10;99.90
4749;DHT22;2388;53.582;9.962;2023-07-31T07:06:05;16.10;99.90
4749;DHT22;2388;53.582;9.962;2023-07-31T07:08:31;16.10;99.90
4749;DHT22;2388;53.582;9.962;2023-07-31T07:10:56;16.10;99.90
4749;DHT22;2388;53.582;9.962;2023-07-31T07:13:22;16.10;99.90
4749;DHT22;2388;53.582;9.962;2023-07-31T07:15:48;16.10;99.90
4749;DHT22;2388;53.582;9.962;2023-07-31T07:18:15;16.10;99.90
4749;DHT22;2388;53.582;9.962;2023-07-31T07:20:41;16.10;99.90
4749;DHT22;2388;53.582;9.962;2023-07-31T07:23:06;16.00;99.90
4749;DHT22;2388;53.582;9.962;2023-07-31T07:25:32;16.10;99.90
4749;DHT22;2388;53.582;9.962;2023-07-31T07:27:57;16.10;99.90
4749;DHT22;2388;53.582;9.962;2023-07-31T07:30:24;16.10;99.90
4749;DHT22;2388;53.582;9.962;2023-07-31T07:32:50;16.10;99.90
4749;DHT22;2388;53.582;9.962;2023-07-31T07:35:16;16.10;99.90
4749;DHT22;2388;53.582;9.962;2023-07-31T07:37:41;16.10;99.90
4749;DHT22;2388;53.582;9.962;2023-07-31T07:40:07;16.10;99.90
4749;DHT22;2388;53.582;9.962;2023-07-31T07:42:33;16.10;99.90
4749;DHT22;2388;53.582;9.962;2023-07-31T07:44:58;16.10;99.90
4749;DHT22;2388;53.582;9.962;2023-07-31T07:47:24;16.10;99.90
4749;DHT22;2388;53.582;9.962;2023-07-31T07:49:49;16.20;99.90
4749;DHT22;2388;53.582;9.962;2023-07-31T07:52:14;16.20;99.90
4749;DHT22;2388;53.582;9.962;2023-07-31T07:54:40;16.20;99.90
4749;DHT22;2388;53.582;9.962;2023-07-31T07:57:06;16.30;99.90
4749;DHT22;2388;53.582;9.962;2023-07-31T07:59:31;16.30;99.90
4749;DHT22;2388;53.582;9.962;2023-07-31T08:01:56;16.30;99.90
4749;DHT22;2388;53.582;9.962;2023-07-31T08:04:22;16.30;99.90
4749;DHT22;2388;53.582;9.962;2023-07-31T08:06:48;16.40;99.90
4749;DHT22;2388;53.582;9.962;2023-07-31T08:09:13;16.40;99.90
4749;DHT22;2388;53.582;9.962;2023-07-31T08:11:39;16.40;99.90
4749;DHT22;2388;53.582;9.962;2023-07-31T08:14:05;16.40;99.90
4749;DHT22;2388;53.582;9.962;2023-07-31T08:16:30;16.40;99.90
4749;DHT22;2388;53.582;9.962;2023-07-31T08:18:56;16.40;99.90
4749;DHT22;2388;53.582;9.962;2023-07-31T08:21:22;16.40;99.90
4749;DHT22;2388;53.582;9.962;2023-07-31T08:23:48;16.50;99.90
4749;DHT22;2388;53.582;9.962;2023-07-31T08:26:17;16.50;99.90
4749;DHT22;2388;53.582;9.962;2023-07-31T08:28:43;16.60;99.90
4749;DHT22;2388;53.582;9.962;2023-07-31T08:31:08;16.60;99.90
4749;DHT22;2388;53.582;9.962;2023-07-31T08:33:34;16.60;99.90
4749;DHT22;2388;53.582;9.962;2023-07-31T08:35:59;16.70;99.90
4749;DHT22;2388;53.582;9.962;2023-07-31T08:38:26;16.70;99.90
4749;DHT22;2388;53.582;9.962;2023-07-31T08:40:52;16.70;99.90
4749;DHT22;2388;53.582;9.962;2023-07-31T08:43:18;16.70;99.90
4749;DHT22;2388;53.582;9.962;2023-07-31T08:45:44;16.80;99.90
4749;DHT22;2388;53.582;9.962;2023-07-31T08:48:11;16.80;99.90
4749;DHT22;2388;53.582;9.962;2023-07-31T08:50:38;16.90;99.90
4749;DHT22;2388;53.582;9.962;2023-07-31T08:53:03;16.90;99.90
4749;DHT22;2388;53.582;9.962;2023-07-31T08:55:29;16.80;99.90
4749;DHT22;2388;53.582;9.962;2023-07-31T08:57:56;16.90;99.90
4749;DHT22;2388;53.582;9.962;2023-07-31T09:00:21;16.90;99.90
4749;DHT22;2388;53.582;9.962;2023-07-31T09:03:03;16.90;99.90
4749;DHT22;2388;53.582;9.962;2023-07-31T09:05:31;17.00;99.90
4749;DHT22;2388;53.582;9.962;2023-07-31T09:07:58;17.00;99.90
4749;DHT22;2388;53.582;9.962;2023-07-31T09:10:24;16.90;99.90
4749;DHT22;2388;53.582;9.962;2023-07-31T09:12:51;16.80;99.90
4749;DHT22;2388;53.582;9.962;2023-07-31T09:15:17;16.90;99.90
4749;DHT22;2388;53.582;9.962;2023-07-31T09:17:43;16.90;99.90
4749;DHT22;2388;53.582;9.962;2023-07-31T09:20:17;16.90;99.90
4749;DHT22;2388;53.582;9.962;2023-07-31T09:22:44;16.80;99.90
4749;DHT22;2388;53.582;9.962;2023-07-31T09:25:20;16.80;99.90
4749;DHT22;2388;53.582;9.962;2023-07-31T09:27:58;16.80;99.90
4749;DHT22;2388;53.582;9.962;2023-07-31T09:30:24;16.80;99.90
4749;DHT22;2388;53.582;9.962;2023-07-31T09:32:51;16.80;99.90
4749;DHT22;2388;53.582;9.962;2023-07-31T09:35:21;16.80;99.90
4749;DHT22;2388;53.582;9.962;2023-07-31T09:37:57;16.80;99.90
4749;DHT22;2388;53.582;9.962;2023-07-31T09:40:30;16.80;99.90
4749;DHT22;2388;53.582;9.962;2023-07-31T09:43:03;16.90;99.90
4749;DHT22;2388;53.582;9.962;2023-07-31T09:45:30;16.90;99.90
4749;DHT22;2388;53.582;9.962;2023-07-31T09:47:57;17.00;99.90
4749;DHT22;2388;53.582;9.962;2023-07-31T09:50:24;17.00;99.90
4749;DHT22;2388;53.582;9.962;2023-07-31T09:52:50;17.10;99.90
4749;DHT22;2388;53.582;9.962;2023-07-31T09:55:17;17.10;99.90
4749;DHT22;2388;53.582;9.962;2023-07-31T09:57:46;17.10;99.90
4749;DHT22;2388;53.582;9.962;2023-07-31T10:00:13;17.00;99.90
4749;DHT22;2388;53.582;9.962;2023-07-31T10:02:39;17.00;99.90
4749;DHT22;2388;53.582;9.962;2023-07-31T10:05:06;16.90;99.90
4749;DHT22;2388;53.582;9.962;2023-07-31T10:07:37;16.90;99.90
4749;DHT22;2388;53.582;9.962;2023-07-31T10:10:04;16.90;99.90
4749;DHT22;2388;53.582;9.962;2023-07-31T10:12:33;17.00;99.90
4749;DHT22;2388;53.582;9.962;2023-07-31T10:15:00;17.00;99.90
4749;DHT22;2388;53.582;9.962;2023-07-31T10:17:26;17.00;99.90
4749;DHT22;2388;53.582;9.962;2023-07-31T10:19:53;17.10;99.90
4749;DHT22;2388;53.582;9.962;2023-07-31T10:22:20;17.10;99.90
4749;DHT22;2388;53.582;9.962;2023-07-31T10:24:46;17.10;99.90
4749;DHT22;2388;53.582;9.962;2023-07-31T10:27:13;17.10;99.90
4749;DHT22;2388;53.582;9.962;2023-07-31T10:29:40;17.10;99.90
4749;DHT22;2388;53.582;9.962;2023-07-31T10:32:10;17.10;99.90
4749;DHT22;2388;53.582;9.962;2023-07-31T10:34:39;17.10;99.90
4749;DHT22;2388;53.582;9.962;2023-07-31T10:39:56;17.20;99.90
4749;DHT22;2388;53.582;9.962;2023-07-31T10:42:30;17.20;99.90
4749;DHT22;2388;53.582;9.962;2023-07-31T10:45:00;17.00;99.90
4749;DHT22;2388;53.582;9.962;2023-07-31T10:47:26;17.00;99.90
4749;DHT22;2388;53.582;9.962;2023-07-31T10:49:52;17.00;99.90
4749;DHT22;2388;53.582;9.962;2023-07-31T10:52:21;17.00;99.90
4749;DHT22;2388;53.582;9.962;2023-07-31T10:57:49;17.00;99.90
4749;DHT22;2388;53.582;9.962;2023-07-31T11:00:27;17.00;99.90
4749;DHT22;2388;53.582;9.962;2023-07-31T11:02:57;17.00;99.90
4749;DHT22;2388;53.582;9.962;2023-07-31T11:08:24;17.00;99.90
4749;DHT22;2388;53.582;9.962;2023-07-31T11:13:34;17.00;99.90
4749;DHT22;2388;53.582;9.962;2023-07-31T11:16:04;17.00;99.90
4749;DHT22;2388;53.582;9.962;2023-07-31T11:18:29;17.00;99.90
4749;DHT22;2388;53.582;9.962;2023-07-31T11:20:55;17.10;99.90
4749;DHT22;2388;53.582;9.962;2023-07-31T11:23:22;17.10;99.90
4749;DHT22;2388;53.582;9.962;2023-07-31T11:25:47;17.00;99.90
4749;DHT22;2388;53.582;9.962;2023-07-31T11:28:15;17.00;99.90
4749;DHT22;2388;53.582;9.962;2023-07-31T11:30:42;17.10;99.90
4749;DHT22;2388;53.582;9.962;2023-07-31T11:33:09;17.10;99.90
4749;DHT22;2388;53.582;9.962;2023-07-31T11:35:41;17.10;99.90
4749;DHT22;2388;53.582;9.962;2023-07-31T11:38:07;17.10;99.90
4749;DHT22;2388;53.582;9.962;2023-07-31T11:40:41;17.20;99.90
4749;DHT22;2388;53.582;9.962;2023-07-31T11:43:07;17.10;99.90
4749;DHT22;2388;53.582;9.962;2023-07-31T11:45:33;17.10;99.90
4749;DHT22;2388;53.582;9.962;2023-07-31T11:48:00;17.10;99.90
4749;DHT22;2388;53.582;9.962;2023-07-31T11:50:26;17.10;99.90
4749;DHT22;2388;53.582;9.962;2023-07-31T11:52:57;17.10;99.90
4749;DHT22;2388;53.582;9.962;2023-07-31T11:55:24;17.10;99.90
4749;DHT22;2388;53.582;9.962;2023-07-31T11:57:51;17.10;99.90
4749;DHT22;2388;53.582;9.962;2023-07-31T12:00:17;17.10;99.90
4749;DHT22;2388;53.582;9.962;2023-07-31T12:02:43;17.10;99.90
4749;DHT22;2388;53.582;9.962;2023-07-31T12:05:12;17.10;99.90
4749;DHT22;2388;53.582;9.962;2023-07-31T12:10:11;17.00;99.90
4749;DHT22;2388;53.582;9.962;2023-07-31T12:12:36;16.90;99.90
4749;DHT22;2388;53.582;9.962;2023-07-31T12:15:02;16.90;99.90
4749;DHT22;2388;53.582;9.962;2023-07-31T12:17:28;16.80;99.90
4749;DHT22;2388;53.582;9.962;2023-07-31T12:19:53;16.90;99.90
4749;DHT22;2388;53.582;9.962;2023-07-31T12:22:20;16.90;99.90
4749;DHT22;2388;53.582;9.962;2023-07-31T12:24:46;16.90;99.90
4749;DHT22;2388;53.582;9.962;2023-07-31T12:27:13;16.90;99.90
4749;DHT22;2388;53.582;9.962;2023-07-31T12:29:39;16.90;99.90
4749;DHT22;2388;53.582;9.962;2023-07-31T12:32:26;17.00;99.90
4749;DHT22;2388;53.582;9.962;2023-07-31T12:34:59;17.00;99.90
4749;DHT22;2388;53.582;9.962;2023-07-31T12:37:25;17.00;99.90
4749;DHT22;2388;53.582;9.962;2023-07-31T12:39:50;16.90;99.90
4749;DHT22;2388;53.582;9.962;2023-07-31T12:42:17;17.00;99.90
4749;DHT22;2388;53.582;9.962;2023-07-31T12:44:43;17.00;99.90
4749;DHT22;2388;53.582;9.962;2023-07-31T12:47:08;17.00;99.90
4749;DHT22;2388;53.582;9.962;2023-07-31T12:49:34;17.00;99.90
4749;DHT22;2388;53.582;9.962;2023-07-31T12:51:59;17.00;99.90
4749;DHT22;2388;53.582;9.962;2023-07-31T12:54:25;17.00;99.90
4749;DHT22;2388;53.582;9.962;2023-07-31T12:56:50;17.00;99.90
4749;DHT22;2388;53.582;9.962;2023-07-31T12:59:16;17.00;99.90
4749;DHT22;2388;53.582;9.962;2023-07-31T13:01:41;17.00;99.90
4749;DHT22;2388;53.582;9.962;2023-07-31T13:04:07;17.00;99.90
4749;DHT22;2388;53.582;9.962;2023-07-31T13:06:33;17.00;99.90
4749;DHT22;2388;53.582;9.962;2023-07-31T13:08:59;17.10;99.90
4749;DHT22;2388;53.582;9.962;2023-07-31T13:11:24;17.10;99.90
4749;DHT22;2388;53.582;9.962;2023-07-31T13:13:50;17.10;99.90
4749;DHT22;2388;53.582;9.962;2023-07-31T13:16:15;17.20;99.90
4749;DHT22;2388;53.582;9.962;2023-07-31T13:18:41;17.20;99.90
4749;DHT22;2388;53.582;9.962;2023-07-31T13:21:06;17.20;99.90
4749;DHT22;2388;53.582;9.962;2023-07-31T13:23:32;17.20;99.90
4749;DHT22;2388;53.582;9.962;2023-07-31T13:25:57;17.20;99.90
4749;DHT22;2388;53.582;9.962;2023-07-31T13:28:24;17.20;99.90
4749;DHT22;2388;53.582;9.962;2023-07-31T13:30:49;17.20;99.90
4749;DHT22;2388;53.582;9.962;2023-07-31T13:33:15;17.20;99.90
4749;DHT22;2388;53.582;9.962;2023-07-31T13:35:40;17.10;99.90
4749;DHT22;2388;53.582;9.962;2023-07-31T13:38:06;17.10;99.90
4749;DHT22;2388;53.582;9.962;2023-07-31T13:40:32;17.20;99.90
4749;DHT22;2388;53.582;9.962;2023-07-31T13:42:57;17.20;99.90
4749;DHT22;2388;53.582;9.962;2023-07-31T13:45:23;17.20;99.90
4749;DHT22;2388;53.582;9.962;2023-07-31T13:47:50;17.30;99.90
4749;DHT22;2388;53.582;9.962;2023-07-31T13:50:15;17.30;99.90
4749;DHT22;2388;53.582;9.962;2023-07-31T13:52:42;17.40;99.90
4749;DHT22;2388;53.582;9.962;2023-07-31T13:55:07;17.40;99.90
4749;DHT22;2388;53.582;9.962;2023-07-31T13:57:33;17.40;99.90
4749;DHT22;2388;53.582;9.962;2023-07-31T13:59:59;17.30;99.90
4749;DHT22;2388;53.582;9.962;2023-07-31T14:02:24;17.30;99.90
4749;DHT22;2388;53.582;9.962;2023-07-31T14:04:50;17.40;99.90
4749;DHT22;2388;53.582;9.962;2023-07-31T14:07:15;17.40;99.90
4749;DHT22;2388;53.582;9.962;2023-07-31T14:09:42;17.40;99.90
4749;DHT22;2388;53.582;9.962;2023-07-31T14:12:08;17.40;99.90
4749;DHT22;2388;53.582;9.962;2023-07-31T14:14:33;17.50;99.90
4749;DHT22;2388;53.582;9.962;2023-07-31T14:16:59;17.50;99.90
4749;DHT22;2388;53.582;9.962;2023-07-31T14:19:24;17.50;99.90
4749;DHT22;2388;53.582;9.962;2023-07-31T14:21:50;17.50;99.90
4749;DHT22;2388;53.582;9.962;2023-07-31T14:24:15;17.50;99.90
4749;DHT22;2388;53.582;9.962;2023-07-31T14:26:41;17.60;99.90
4749;DHT22;2388;53.582;9.962;2023-07-31T14:29:06;17.60;99.90
4749;DHT22;2388;53.582;9.962;2023-07-31T14:31:32;17.60;99.90
4749;DHT22;2388;53.582;9.962;2023-07-31T14:33:57;17.60;99.90
4749;DHT22;2388;53.582;9.962;2023-07-31T14:36:23;17.60;99.90
4749;DHT22;2388;53.582;9.962;2023-07-31T14:38:48;17.60;99.90
4749;DHT22;2388;53.582;9.962;2023-07-31T14:41:14;17.60;99.90
4749;DHT22;2388;53.582;9.962;2023-07-31T14:43:39;17.70;99.90
4749;DHT22;2388;53.582;9.962;2023-07-31T14:46:05;17.70;99.90
4749;DHT22;2388;53.582;9.962;2023-07-31T14:48:31;17.70;99.90
4749;DHT22;2388;53.582;9.962;2023-07-31T14:50:56;17.70;99.90
4749;DHT22;2388;53.582;9.962;2023-07-31T14:53:22;17.80;99.90
4749;DHT22;2388;53.582;9.962;2023-07-31T14:55:47;17.80;99.90
4749;DHT22;2388;53.582;9.962;2023-07-31T14:58:13;17.80;99.90
4749;DHT22;2388;53.582;9.962;2023-07-31T15:00:39;17.80;99.90
4749;DHT22;2388;53.582;9.962;2023-07-31T15:03:05;17.80;99.90
4749;DHT22;2388;53.582;9.962;2023-07-31T15:05:31;17.80;99.90
4749;DHT22;2388;53.582;9.962;2023-07-31T15:07:56;17.80;99.90
4749;DHT22;2388;53.582;9.962;2023-07-31T15:10:22;17.80;99.90
4749;DHT22;2388;53.582;9.962;2023-07-31T15:12:47;17.80;99.90
4749;DHT22;2388;53.582;9.962;2023-07-31T15:15:14;17.90;99.90
4749;DHT22;2388;53.582;9.962;2023-07-31T15:17:40;17.90;99.90
4749;DHT22;2388;53.582;9.962;2023-07-31T15:20:06;17.80;99.90
4749;DHT22;2388;53.582;9.962;2023-07-31T15:22:32;17.80;99.90
4749;DHT22;2388;53.582;9.962;2023-07-31T15:24:57;17.90;99.90
4749;DHT22;2388;53.582;9.962;2023-07-31T15:27:23;17.80;99.90
4749;DHT22;2388;53.582;9.962;2023-07-31T15:29:49;17.90;99.90
4749;DHT22;2388;53.582;9.962;2023-07-31T15:32:16;17.90;99.90
4749;DHT22;2388;53.582;9.962;2023-07-31T15:34:43;17.90;99.90
4749;DHT22;2388;53.582;9.962;2023-07-31T15:37:09;17.90;99.90
4749;DHT22;2388;53.582;9.962;2023-07-31T15:39:34;18.00;99.90
4749;DHT22;2388;53.582;9.962;2023-07-31T15:42:00;18.00;99.90
4749;DHT22;2388;53.582;9.962;2023-07-31T15:44:25;18.00;99.90
4749;DHT22;2388;53.582;9.962;2023-07-31T15:46:51;18.00;99.90
4749;DHT22;2388;53.582;9.962;2023-07-31T15:49:16;18.00;99.90
4749;DHT22;2388;53.582;9.962;2023-07-31T15:51:42;18.00;99.90
4749;DHT22;2388;53.582;9.962;2023-07-31T15:54:07;17.90;99.90
4749;DHT22;2388;53.582;9.962;2023-07-31T15:56:32;17.90;99.90
4749;DHT22;2388;53.582;9.962;2023-07-31T15:58:58;17.90;99.90
4749;DHT22;2388;53.582;9.962;2023-07-31T16:01:26;17.80;99.90
4749;DHT22;2388;53.582;9.962;2023-07-31T16:03:51;17.80;99.90
4749;DHT22;2388;53.582;9.962;2023-07-31T16:06:18;17.80;99.90
4749;DHT22;2388;53.582;9.962;2023-07-31T16:08:43;18.00;99.90
4749;DHT22;2388;53.582;9.962;2023-07-31T16:11:09;17.80;99.90
4749;DHT22;2388;53.582;9.962;2023-07-31T16:13:35;17.80;99.90